createdAt,value
2019-01-26T00:02:29.371Z,26.52
2019-01-26T00:05:09.726Z,31.37
2019-01-26T00:07:50.433Z,28.30
2019-01-26T00:10:31.170Z,26.60
2019-01-26T00:13:11.939Z,22.95
2019-01-26T00:15:52.805Z,21.00
2019-01-26T00:18:33.087Z,25.02
2019-01-26T00:21:14.027Z,21.35
2019-01-26T00:23:54.641Z,17.37
2019-01-26T00:26:36.445Z,19.70
2019-01-26T00:29:18.109Z,24.52
2019-01-26T00:32:00.927Z,23.85
2019-01-26T00:34:42.208Z,22.05
2019-01-26T00:37:22.767Z,22.70
2019-01-26T00:40:03.335Z,19.05
2019-01-26T00:42:44.057Z,19.50
2019-01-26T00:45:24.872Z,18.37
2019-01-26T00:48:05.816Z,15.98
2019-01-26T00:50:46.859Z,19.82
2019-01-26T00:53:27.639Z,16.32
2019-01-26T00:56:08.223Z,20.95
2019-01-26T00:58:48.828Z,21.55
2019-01-26T01:01:29.591Z,20.17
2019-01-26T01:04:10.297Z,17.12
2019-01-26T01:06:51.547Z,18.37
2019-01-26T01:09:50.680Z,16.87
2019-01-26T01:12:36.025Z,16.05
2019-01-26T01:47:44.043Z,13.28
2019-01-26T01:50:25.376Z,12.00
2019-01-26T01:53:05.854Z,12.45
2019-01-26T01:55:46.751Z,12.60
2019-01-26T01:58:28.077Z,12.18
2019-01-26T02:01:30.914Z,10.82
2019-01-26T02:06:56.199Z,11.05
2019-01-26T02:09:37.547Z,10.28
2019-01-26T02:12:18.455Z,10.48
2019-01-26T02:14:59.639Z,9.90
2019-01-26T02:17:40.478Z,10.63
2019-01-26T02:20:21.287Z,10.98
2019-01-26T02:23:03.047Z,10.23
2019-01-26T02:25:44.123Z,8.93
2019-01-26T02:28:25.099Z,9.25
2019-01-26T02:31:05.991Z,9.50
2019-01-26T02:33:46.733Z,8.60
2019-01-26T02:36:27.347Z,9.30
2019-01-26T02:39:08.174Z,8.50
2019-01-26T02:41:48.608Z,9.45
2019-01-26T02:44:29.465Z,8.93
2019-01-26T02:47:10.125Z,8.05
2019-01-26T02:49:50.987Z,6.55
2019-01-26T02:52:31.591Z,7.62
2019-01-26T02:55:12.113Z,8.28
2019-01-26T02:57:52.895Z,8.43
2019-01-26T03:00:33.607Z,7.58
2019-01-26T03:03:14.505Z,6.75
2019-01-26T03:05:55.231Z,6.85
2019-01-26T03:17:44.588Z,5.70
2019-01-26T03:20:16.360Z,4.90
2019-01-26T03:22:57.583Z,5.40
2019-01-26T03:25:38.696Z,5.00
2019-01-26T03:28:19.503Z,4.40
2019-01-26T03:31:00.240Z,4.15
2019-01-26T03:33:40.768Z,3.75
2019-01-26T03:36:21.439Z,4.40
2019-01-26T03:39:02.179Z,3.33
2019-01-26T03:41:43.543Z,4.03
2019-01-26T03:44:24.221Z,4.25
2019-01-26T03:47:04.578Z,3.62
2019-01-26T03:49:45.399Z,3.30
2019-01-26T03:52:26.004Z,3.33
2019-01-26T03:55:06.881Z,3.33
2019-01-26T03:57:47.706Z,3.33
2019-01-26T04:00:28.357Z,2.98
2019-01-26T04:03:09.029Z,3.47
2019-01-26T04:08:32.075Z,3.22
2019-01-26T04:11:13.208Z,2.98
2019-01-26T04:13:53.755Z,2.80
2019-01-26T04:16:34.679Z,3.10
2019-01-26T04:19:15.374Z,2.60
2019-01-26T04:21:56.171Z,2.75
2019-01-26T04:24:36.705Z,2.65
2019-01-26T04:27:17.461Z,2.73
2019-01-26T04:29:58.223Z,2.50
2019-01-26T04:32:39.043Z,2.50
2019-01-26T04:35:19.719Z,2.70
2019-01-26T04:38:00.336Z,2.40
2019-01-26T04:40:43.400Z,2.52
2019-01-26T04:43:25.506Z,3.25
2019-01-26T04:46:06.848Z,3.02
2019-01-26T04:52:14.445Z,9.00
2019-01-26T04:56:02.687Z,3.40
2019-01-26T06:28:47.092Z,1.42
2019-01-26T06:31:29.391Z,1.70
2019-01-26T06:34:10.535Z,1.20
2019-01-26T06:36:51.027Z,1.17
2019-01-26T06:39:31.981Z,1.20
2019-01-26T06:42:13.167Z,1.60
2019-01-26T06:44:53.687Z,2.75
2019-01-26T06:47:34.180Z,3.23
2019-01-26T06:50:14.788Z,9.30
2019-01-26T06:52:55.340Z,38.40
2019-01-26T06:55:36.115Z,71.92
2019-01-26T06:58:16.813Z,136.15
2019-01-26T07:00:57.719Z,123.33
2019-01-26T07:03:38.421Z,149.60
2019-01-26T07:06:22.582Z,221.37
2019-01-26T07:09:04.836Z,219.27
2019-01-26T08:07:58.765Z,420.43
2019-01-26T08:10:39.976Z,558.47
2019-01-26T08:42:44.812Z,213.20
2019-01-26T08:48:44.428Z,262.20
2019-01-26T08:51:25.149Z,281.47
2019-01-26T08:54:05.702Z,255.07
2019-01-26T08:56:46.500Z,342.17
2019-01-26T08:59:27.675Z,284.57
2019-01-26T09:11:04.327Z,507.17
2019-01-26T09:31:14.718Z,476.67
2019-01-26T09:33:55.268Z,584.90
2019-01-26T09:36:35.787Z,571.13
2019-01-26T09:39:16.644Z,401.03
2019-01-26T09:41:58.078Z,493.20
2019-01-26T09:44:38.839Z,425.20
2019-01-26T09:47:20.245Z,383.77
2019-01-26T09:50:01.157Z,370.20
2019-01-26T09:52:41.943Z,476.17
2019-01-26T09:55:22.610Z,513.43
2019-01-26T09:58:03.110Z,551.90
2019-01-26T10:00:44.338Z,520.97
2019-01-26T10:21:25.984Z,257.83
2019-01-26T10:24:07.695Z,266.30
2019-01-26T10:26:48.744Z,328.20
2019-01-26T10:29:29.769Z,380.13
2019-01-26T10:32:10.185Z,638.13
2019-01-26T10:34:51.137Z,466.67
2019-01-26T10:37:32.166Z,498.17
2019-01-26T10:46:43.135Z,460.87
2019-01-26T10:49:00.824Z,460.13
2019-01-26T10:54:41.592Z,455.67
2019-01-26T10:57:43.798Z,491.70
2019-01-26T11:00:24.924Z,537.17
2019-01-26T11:03:05.976Z,659.40
2019-01-26T11:05:52.633Z,724.63
2019-01-26T11:08:50.559Z,621.37
2019-01-26T11:11:36.007Z,742.80
2019-01-26T11:26:18.509Z,955.83
2019-01-26T11:50:16.335Z,884.40
2019-01-26T11:52:57.648Z,827.20
2019-01-26T11:55:57.181Z,900.17
2019-01-26T11:58:37.604Z,800.30
2019-01-26T12:01:40.427Z,862.83
2019-01-26T12:04:24.924Z,689.93
2019-01-26T12:07:08.384Z,806.37
2019-01-26T12:09:51.537Z,714.37
2019-01-26T12:12:32.292Z,604.27
2019-01-26T12:15:13.200Z,516.77
2019-01-26T12:17:53.939Z,431.27
2019-01-26T12:20:34.779Z,383.40
2019-01-26T12:23:15.380Z,600.47
2019-01-26T12:25:55.939Z,662.80
2019-01-26T12:28:36.545Z,846.87
2019-01-26T12:31:17.396Z,759.40
2019-01-26T12:33:58.501Z,906.23
2019-01-26T12:36:39.119Z,926.17
2019-01-26T13:49:32.304Z,412.93
2019-01-26T13:52:13.052Z,521.77
2019-01-26T13:54:53.971Z,771.03
2019-01-26T13:57:34.852Z,770.17
2019-01-26T14:00:15.652Z,1036.80
2019-01-26T14:02:56.828Z,1068.27
2019-01-26T14:05:37.519Z,821.50
2019-01-26T14:08:18.231Z,932.27
2019-01-26T14:10:58.959Z,884.43
2019-01-26T14:13:39.899Z,592.37
2019-01-26T14:16:20.520Z,379.53
2019-01-26T14:19:01.226Z,329.03
2019-01-26T14:21:41.936Z,359.73
2019-01-26T14:24:25.822Z,139.77
2019-01-26T15:07:59.360Z,1362.33
2019-01-26T15:10:39.982Z,1538.67
2019-01-26T15:13:20.515Z,1516.97
2019-01-26T15:16:01.208Z,1731.07
2019-01-26T15:18:41.687Z,1999.90
2019-01-26T15:21:22.741Z,1999.90
2019-01-26T15:24:03.799Z,1999.90
2019-01-26T15:26:44.557Z,1999.90
2019-01-26T15:29:25.133Z,1999.90
2019-01-26T15:32:05.736Z,1999.90
2019-01-26T15:34:46.443Z,1999.90
2019-01-26T15:37:27.104Z,1999.90
2019-01-26T15:40:07.897Z,1999.90
2019-01-26T15:42:48.553Z,1777.43
2019-01-26T15:45:28.951Z,1999.90
2019-01-26T15:48:09.604Z,1398.57
2019-01-26T15:50:50.424Z,1240.83
2019-01-26T15:53:32.186Z,1214.13
2019-01-26T15:56:12.622Z,1805.80
2019-01-26T15:58:53.227Z,1253.83
2019-01-26T16:01:33.911Z,1477.20
2019-01-26T16:04:14.624Z,1105.43
2019-01-26T16:06:55.351Z,783.97
2019-01-26T16:09:35.799Z,1021.60
2019-01-26T16:12:16.762Z,854.83
2019-01-26T16:14:58.075Z,1162.43
2019-01-26T16:17:38.799Z,1221.47
2019-01-26T16:20:20.357Z,1763.73
2019-01-26T16:23:01.275Z,1442.13
2019-01-26T16:25:42.060Z,1358.80
2019-01-26T16:28:22.503Z,1540.33
2019-01-26T16:31:03.516Z,1424.67
2019-01-26T16:33:44.236Z,1449.77
2019-01-26T16:36:24.970Z,1310.00
2019-01-26T16:41:55.187Z,1523.43
2019-01-26T16:44:35.618Z,1427.87
2019-01-26T16:47:16.210Z,1569.40
2019-01-26T16:49:56.915Z,1431.37
2019-01-26T16:52:37.496Z,1542.07
2019-01-26T16:55:18.201Z,1765.63
2019-01-26T16:57:58.884Z,1346.07
2019-01-26T17:00:39.788Z,1390.53
2019-01-26T17:03:20.664Z,1638.27
2019-01-26T17:06:01.241Z,1435.40
2019-01-26T17:08:41.851Z,1549.63
2019-01-26T17:11:22.455Z,781.37
2019-01-26T17:14:02.971Z,287.13
2019-01-26T17:16:43.816Z,124.87
2019-01-26T17:19:24.478Z,411.93
2019-01-26T17:22:05.041Z,408.20
2019-01-26T17:24:45.982Z,98.13
2019-01-26T17:27:26.843Z,355.33
2019-01-26T17:30:07.575Z,261.20
2019-01-26T17:32:48.245Z,302.40
2019-01-26T17:35:29.160Z,611.83
2019-01-26T17:38:10.013Z,1295.00
2019-01-26T17:40:54.546Z,1540.97
2019-01-26T17:43:33.263Z,1582.27
2019-01-26T17:46:13.807Z,1999.90
2019-01-26T17:51:43.652Z,1999.90
2019-01-26T17:54:24.104Z,1999.90
2019-01-26T17:57:05.543Z,1999.90
2019-01-26T18:02:30.339Z,1844.20
2019-01-26T18:16:50.652Z,1782.30
2019-01-26T18:22:19.067Z,1704.50
2019-01-26T18:25:00.231Z,1880.33
2019-01-26T18:27:40.789Z,1765.13
2019-01-26T18:30:21.764Z,1534.37
2019-01-26T18:33:02.231Z,1980.73
2019-01-26T18:35:43.032Z,1926.27
2019-01-26T18:38:25.985Z,1989.30
2019-01-26T18:41:06.747Z,1999.33
2019-01-26T18:43:47.176Z,1822.50
2019-01-26T18:46:27.779Z,1551.50
2019-01-26T18:49:08.692Z,1999.90
2019-01-26T18:51:49.164Z,1995.97
2019-01-26T18:54:29.835Z,1887.73
2019-01-26T18:57:10.714Z,1471.43
2019-01-26T18:59:53.649Z,1618.67
2019-01-26T19:02:34.377Z,1714.17
2019-01-26T19:05:15.106Z,1911.47
2019-01-26T19:07:56.591Z,1959.00
2019-01-26T19:10:37.233Z,1701.07
2019-01-26T19:13:18.052Z,1936.37
2019-01-26T19:15:58.692Z,1935.60
2019-01-26T19:18:39.317Z,1862.77
2019-01-26T19:21:20.203Z,1201.87
2019-01-26T19:24:01.143Z,1366.47
2019-01-26T19:26:41.786Z,1763.10
2019-01-26T19:29:22.562Z,1520.80
2019-01-26T19:32:03.483Z,1846.83
2019-01-26T19:37:33.064Z,1496.67
2019-01-26T19:40:14.302Z,1387.97
2019-01-26T19:42:54.977Z,1523.23
2019-01-26T19:45:35.440Z,1464.40
2019-01-26T19:48:16.045Z,1361.40
2019-01-26T19:50:56.635Z,1362.47
2019-01-26T19:53:38.343Z,1103.97
2019-01-26T19:56:19.145Z,1773.77
2019-01-26T19:58:59.755Z,1574.23
2019-01-26T20:01:41.317Z,1326.13
2019-01-26T20:04:22.440Z,1675.23
2019-01-26T20:07:04.343Z,1786.73
2019-01-26T20:09:45.004Z,1595.30
2019-01-26T20:12:26.008Z,1716.50
2019-01-26T20:15:07.167Z,1292.77
2019-01-26T20:20:33.541Z,978.67
2019-01-26T20:23:14.004Z,1311.17
2019-01-26T20:25:54.635Z,972.17
2019-01-26T20:31:30.692Z,48.60
2019-01-26T20:42:55.313Z,1375.70
2019-01-26T21:09:13.475Z,81.53
